createdAt,value
2019-02-27T00:00:06.091Z,16.45
2019-02-27T00:02:35.088Z,16.82
2019-02-27T00:05:05.976Z,16.73
2019-02-27T00:07:34.822Z,15.95
2019-02-27T00:10:06.182Z,16.37
2019-02-27T00:12:34.790Z,17.37
2019-02-27T00:15:05.090Z,17.17
2019-02-27T00:17:34.657Z,16.70
2019-02-27T00:20:05.047Z,16.62
2019-02-27T00:22:34.181Z,16.37
2019-02-27T00:25:04.037Z,18.40
2019-02-27T00:27:33.110Z,16.48
2019-02-27T00:30:05.053Z,17.40
2019-02-27T00:32:32.787Z,16.55
2019-02-27T00:35:06.332Z,16.23
2019-02-27T00:37:32.358Z,16.00
2019-02-27T00:40:05.426Z,15.28
2019-02-27T00:42:33.719Z,15.53
2019-02-27T00:45:06.843Z,16.07
2019-02-27T00:47:33.125Z,16.30
2019-02-27T00:50:05.792Z,17.15
2019-02-27T00:52:32.605Z,16.35
2019-02-27T00:55:04.302Z,16.67
2019-02-27T00:57:32.141Z,16.40
2019-02-27T01:00:01.106Z,16.95
2019-02-27T01:02:30.062Z,16.20
2019-02-27T01:04:59.579Z,16.40
2019-02-27T01:07:28.594Z,16.87
2019-02-27T01:09:57.508Z,15.80
2019-02-27T01:12:26.473Z,15.45
2019-02-27T01:14:55.485Z,15.98
2019-02-27T01:17:24.474Z,16.60
2019-02-27T01:19:53.351Z,15.72
2019-02-27T01:22:22.275Z,17.12
2019-02-27T01:24:51.192Z,16.12
2019-02-27T01:27:20.116Z,17.30
2019-02-27T01:29:51.136Z,16.87
2019-02-27T01:32:19.593Z,16.37
2019-02-27T01:34:48.522Z,15.18
2019-02-27T01:37:17.358Z,16.12
2019-02-27T01:39:46.300Z,16.57
2019-02-27T01:42:15.134Z,15.08
2019-02-27T01:44:46.523Z,15.95
2019-02-27T01:47:14.850Z,15.78
2019-02-27T01:49:43.719Z,16.17
2019-02-27T01:52:12.565Z,16.65
2019-02-27T01:54:41.489Z,15.80
2019-02-27T01:57:10.323Z,15.60
2019-02-27T01:59:39.186Z,16.85
2019-02-27T02:02:08.122Z,14.87
2019-02-27T02:04:37.096Z,15.05
2019-02-27T02:07:06.660Z,15.03
2019-02-27T02:09:37.679Z,15.00
2019-02-27T02:12:12.961Z,15.08
2019-02-27T02:15:12.369Z,14.80
2019-02-27T02:18:13.966Z,15.40
2019-02-27T02:21:14.146Z,14.45
2019-02-27T02:24:45.459Z,16.02
2019-02-27T02:27:41.555Z,15.55
2019-02-27T02:30:42.660Z,16.30
2019-02-27T02:33:48.634Z,14.13
2019-02-27T02:37:01.443Z,15.05
2019-02-27T02:39:54.190Z,14.03
2019-02-27T02:43:03.151Z,15.35
2019-02-27T02:46:13.036Z,14.55
2019-02-27T02:48:58.348Z,16.15
2019-02-27T03:07:13.350Z,15.38
2019-02-27T03:10:16.259Z,14.50
2019-02-27T03:13:20.651Z,15.30
2019-02-27T03:16:11.928Z,15.10
2019-02-27T03:19:15.483Z,14.58
2019-02-27T03:22:03.616Z,14.45
2019-02-27T03:25:05.769Z,14.70
2019-02-27T03:28:04.449Z,16.27
2019-02-27T03:31:11.026Z,14.63
2019-02-27T03:34:23.071Z,13.98
2019-02-27T03:37:38.700Z,14.47
2019-02-27T03:40:35.757Z,13.83
2019-02-27T03:43:30.591Z,13.78
2019-02-27T03:46:19.197Z,15.28
2019-02-27T03:49:03.017Z,14.00
2019-02-27T03:51:48.630Z,14.63
2019-02-27T03:54:31.787Z,14.90
2019-02-27T03:57:28.940Z,13.85
2019-02-27T04:00:42.706Z,15.75
2019-02-27T04:03:41.051Z,15.43
2019-02-27T04:06:39.387Z,16.00
2019-02-27T04:09:09.741Z,17.10
2019-02-27T04:11:41.439Z,15.70
2019-02-27T04:14:32.370Z,15.78
2019-02-27T04:17:05.378Z,16.27
2019-02-27T04:19:38.628Z,16.23
2019-02-27T04:22:02.817Z,15.68
2019-02-27T04:24:31.709Z,16.77
2019-02-27T04:27:00.625Z,16.67
2019-02-27T04:29:29.449Z,15.58
2019-02-27T04:31:58.443Z,16.60
2019-02-27T04:34:27.342Z,16.02
2019-02-27T04:36:56.296Z,17.12
2019-02-27T04:39:25.125Z,15.85
2019-02-27T04:41:54.061Z,16.15
2019-02-27T04:44:22.920Z,17.02
2019-02-27T04:46:54.809Z,16.42
2019-02-27T04:49:22.297Z,16.50
2019-02-27T04:51:51.179Z,16.15
2019-02-27T04:54:20.221Z,15.63
2019-02-27T04:56:49.158Z,16.57
2019-02-27T04:59:18.749Z,15.40
2019-02-27T05:01:48.209Z,16.30
2019-02-27T05:04:17.048Z,17.48
2019-02-27T05:06:47.330Z,16.55
2019-02-27T05:09:16.808Z,16.40
2019-02-27T05:11:48.262Z,16.35
2019-02-27T05:14:16.441Z,16.12
2019-02-27T05:16:47.292Z,14.65
2019-02-27T05:19:15.933Z,16.55
2019-02-27T05:21:44.793Z,15.72
2019-02-27T05:24:13.649Z,14.95
2019-02-27T05:26:42.588Z,15.55
2019-02-27T05:29:11.413Z,16.82
2019-02-27T05:31:40.256Z,15.25
2019-02-27T05:34:12.669Z,16.90
2019-02-27T05:36:39.744Z,16.00
2019-02-27T05:39:08.778Z,15.60
2019-02-27T05:41:37.620Z,16.23
2019-02-27T05:44:06.480Z,15.90
2019-02-27T05:46:35.678Z,16.35
2019-02-27T05:49:06.100Z,17.37
2019-02-27T05:51:34.945Z,16.50
2019-02-27T05:54:03.937Z,16.17
2019-02-27T05:56:32.941Z,14.95
2019-02-27T05:59:01.977Z,14.93
2019-02-27T06:01:30.797Z,15.15
2019-02-27T06:03:59.661Z,16.02
2019-02-27T06:06:28.495Z,15.15
2019-02-27T06:08:57.324Z,14.85
2019-02-27T06:11:27.113Z,16.15
2019-02-27T06:13:57.242Z,14.45
2019-02-27T06:16:26.167Z,16.55
2019-02-27T06:18:56.267Z,14.60
2019-02-27T06:21:25.911Z,14.68
2019-02-27T06:23:54.821Z,16.20
2019-02-27T06:26:23.833Z,16.00
2019-02-27T06:28:52.749Z,15.90
2019-02-27T06:31:21.621Z,18.95
2019-02-27T06:33:50.530Z,18.35
2019-02-27T06:36:19.428Z,16.55
2019-02-27T06:38:48.354Z,19.57
2019-02-27T06:41:17.298Z,18.07
2019-02-27T06:43:46.134Z,17.65
2019-02-27T06:46:17.349Z,17.85
2019-02-27T06:48:45.599Z,16.30
2019-02-27T06:51:14.458Z,16.23
2019-02-27T06:53:43.453Z,15.98
2019-02-27T06:56:12.436Z,16.20
2019-02-27T06:58:41.291Z,16.87
2019-02-27T07:01:13.117Z,16.65
2019-02-27T07:03:40.690Z,15.55
2019-02-27T07:06:09.555Z,16.87
2019-02-27T07:08:38.719Z,16.02
2019-02-27T07:11:10.835Z,16.17
2019-02-27T07:13:38.559Z,16.42
2019-02-27T07:16:07.653Z,16.15
2019-02-27T07:18:41.494Z,16.40
2019-02-27T07:21:07.464Z,17.77
2019-02-27T07:23:36.490Z,15.43
2019-02-27T07:26:05.513Z,15.95
2019-02-27T07:28:37.471Z,16.27
2019-02-27T07:31:06.403Z,16.80
2019-02-27T07:33:38.038Z,15.98
2019-02-27T07:36:06.279Z,16.10
2019-02-27T07:38:35.265Z,15.68
2019-02-27T07:41:04.277Z,16.10
2019-02-27T07:43:33.357Z,16.57
2019-02-27T07:46:02.414Z,16.02
2019-02-27T07:48:32.504Z,16.35
2019-02-27T07:51:01.448Z,17.98
2019-02-27T07:53:30.270Z,17.57
2019-02-27T07:55:59.202Z,19.82
2019-02-27T07:58:29.284Z,16.27
2019-02-27T08:00:58.974Z,17.55
2019-02-27T08:03:29.804Z,17.25
2019-02-27T08:05:59.812Z,17.17
2019-02-27T08:08:29.411Z,16.95
2019-02-27T08:10:58.322Z,16.23
2019-02-27T08:13:29.715Z,16.42
2019-02-27T08:15:58.174Z,17.40
2019-02-27T08:18:30.400Z,24.82
2019-02-27T08:20:58.154Z,22.48
2019-02-27T08:23:27.258Z,21.62
2019-02-27T08:25:56.227Z,20.10
2019-02-27T08:28:26.921Z,19.45
2019-02-27T08:30:55.917Z,17.62
2019-02-27T08:33:25.168Z,17.02
2019-02-27T08:35:54.233Z,19.67
2019-02-27T08:38:23.722Z,16.65
2019-02-27T08:40:57.563Z,17.17
2019-02-27T08:43:23.592Z,16.77
2019-02-27T08:45:52.560Z,16.15
2019-02-27T08:48:21.606Z,18.32
2019-02-27T08:50:51.824Z,16.10
2019-02-27T08:53:25.972Z,17.07
2019-02-27T08:55:52.833Z,16.77
2019-02-27T08:58:21.774Z,15.68
2019-02-27T09:00:51.844Z,16.40
2019-02-27T09:03:20.998Z,16.37
2019-02-27T09:05:51.082Z,16.27
2019-02-27T09:08:20.804Z,17.27
2019-02-27T09:10:49.750Z,16.77
2019-02-27T09:13:18.763Z,18.75
2019-02-27T09:15:47.853Z,16.50
2019-02-27T09:18:16.850Z,17.05
2019-02-27T09:20:45.842Z,17.00
2019-02-27T09:23:15.124Z,17.30
2019-02-27T09:25:44.478Z,16.10
2019-02-27T09:28:13.497Z,18.17
2019-02-27T09:30:42.541Z,16.57
2019-02-27T09:33:11.576Z,16.85
2019-02-27T09:35:40.652Z,15.18
2019-02-27T09:38:09.584Z,14.98
2019-02-27T09:40:39.663Z,16.82
2019-02-27T09:43:08.957Z,16.23
2019-02-27T09:45:37.963Z,16.40
2019-02-27T09:48:07.045Z,16.05
2019-02-27T09:50:41.013Z,16.40
2019-02-27T09:53:10.143Z,16.37
2019-02-27T09:55:39.163Z,16.32
2019-02-27T09:58:11.012Z,15.93
2019-02-27T10:00:47.308Z,16.73
2019-02-27T10:03:20.229Z,14.85
2019-02-27T10:05:47.774Z,16.05
2019-02-27T10:08:17.000Z,14.83
2019-02-27T10:10:46.206Z,14.93
2019-02-27T10:13:15.302Z,15.93
2019-02-27T10:15:44.499Z,15.03
2019-02-27T10:18:18.376Z,15.45
2019-02-27T10:20:44.396Z,14.33
2019-02-27T10:23:13.616Z,14.70
2019-02-27T10:25:43.592Z,14.18
2019-02-27T10:28:13.459Z,15.18
2019-02-27T10:30:43.453Z,14.47
2019-02-27T10:33:12.678Z,14.05
2019-02-27T10:35:41.872Z,13.22
2019-02-27T10:38:10.955Z,12.80
2019-02-27T10:40:39.970Z,12.75
2019-02-27T10:43:09.050Z,12.95
2019-02-27T10:45:38.172Z,13.40
2019-02-27T10:48:07.232Z,12.63
2019-02-27T10:50:36.269Z,11.65
2019-02-27T10:53:05.345Z,12.95
2019-02-27T10:55:34.262Z,13.35
2019-02-27T10:58:03.344Z,13.00
2019-02-27T11:00:34.832Z,13.55
2019-02-27T11:03:03.322Z,12.85
2019-02-27T11:05:32.945Z,13.20
2019-02-27T11:08:02.279Z,12.20
2019-02-27T11:10:31.208Z,12.40
2019-02-27T11:13:03.003Z,12.65
2019-02-27T11:15:30.947Z,12.90
2019-02-27T11:18:04.235Z,11.53
2019-02-27T11:20:30.801Z,13.25
2019-02-27T11:22:59.972Z,13.40
2019-02-27T11:25:29.139Z,12.30
2019-02-27T11:27:58.505Z,11.85
2019-02-27T11:30:30.422Z,12.00
2019-02-27T11:32:59.465Z,11.93
2019-02-27T11:35:28.524Z,12.90
2019-02-27T11:37:57.400Z,12.15
2019-02-27T11:40:26.294Z,12.10
2019-02-27T11:42:55.274Z,12.75
2019-02-27T11:45:24.869Z,11.78
2019-02-27T11:47:53.975Z,12.88
2019-02-27T11:50:23.016Z,13.48
2019-02-27T11:52:52.196Z,12.68
2019-02-27T11:55:21.190Z,12.25
2019-02-27T11:57:50.421Z,12.60
2019-02-27T12:00:26.364Z,12.53
2019-02-27T12:02:55.432Z,13.62
2019-02-27T12:05:24.881Z,12.93
2019-02-27T12:07:54.156Z,11.85
2019-02-27T12:10:24.847Z,13.08
2019-02-27T12:12:59.730Z,12.68
2019-02-27T12:15:27.152Z,13.43
2019-02-27T12:17:59.714Z,12.43
2019-02-27T12:20:26.867Z,12.15
2019-02-27T12:22:55.950Z,12.98
2019-02-27T12:25:29.094Z,12.85
2019-02-27T12:27:56.718Z,13.40
2019-02-27T12:30:26.266Z,14.80
2019-02-27T12:32:56.706Z,13.62
2019-02-27T12:35:27.877Z,12.35
2019-02-27T12:37:56.953Z,13.05
2019-02-27T12:40:25.987Z,14.10
2019-02-27T12:42:55.417Z,13.40
2019-02-27T12:45:25.780Z,13.22
2019-02-27T12:47:55.473Z,13.95
2019-02-27T12:50:27.042Z,14.87
2019-02-27T12:52:55.369Z,13.83
2019-02-27T12:55:24.787Z,13.03
2019-02-27T12:57:53.777Z,13.53
2019-02-27T13:00:25.212Z,14.70
2019-02-27T13:02:54.223Z,13.83
2019-02-27T13:05:26.471Z,13.88
2019-02-27T13:07:54.118Z,13.38
2019-02-27T13:10:23.382Z,12.73
2019-02-27T13:12:52.650Z,13.15
2019-02-27T13:15:22.612Z,15.05
2019-02-27T13:17:56.169Z,13.65
2019-02-27T13:20:24.362Z,13.40
2019-02-27T13:22:53.503Z,12.43
2019-02-27T13:25:24.145Z,13.95
2019-02-27T13:27:53.261Z,14.30
2019-02-27T13:30:22.491Z,12.88
2019-02-27T13:32:51.459Z,14.90
2019-02-27T13:35:23.128Z,14.53
2019-02-27T13:37:51.278Z,13.93
2019-02-27T13:40:20.511Z,13.15
2019-02-27T13:42:52.287Z,13.28
2019-02-27T13:45:22.199Z,14.73
2019-02-27T13:47:51.273Z,13.43
2019-02-27T13:50:24.449Z,13.80
2019-02-27T13:52:51.048Z,13.38
2019-02-27T13:55:20.412Z,14.20
2019-02-27T13:57:49.496Z,14.75
2019-02-27T14:00:21.586Z,14.85
2019-02-27T14:02:50.853Z,13.43
2019-02-27T14:05:19.853Z,14.73
2019-02-27T14:07:48.882Z,13.62
2019-02-27T14:10:20.499Z,14.03
2019-02-27T14:12:48.783Z,14.73
2019-02-27T14:15:26.935Z,14.95
2019-02-27T14:17:52.758Z,15.13
2019-02-27T14:20:21.916Z,15.78
2019-02-27T14:22:51.390Z,15.03
2019-02-27T14:25:22.055Z,15.03
2019-02-27T14:27:51.274Z,15.38
2019-02-27T14:30:25.476Z,15.18
2019-02-27T14:32:56.565Z,15.83
2019-02-27T14:35:25.908Z,16.17
2019-02-27T14:37:54.943Z,16.60
2019-02-27T14:40:24.180Z,16.48
2019-02-27T14:42:54.853Z,16.85
2019-02-27T14:45:26.749Z,16.25
2019-02-27T14:47:55.761Z,15.88
2019-02-27T14:50:25.298Z,16.67
2019-02-27T14:52:54.266Z,18.42
2019-02-27T14:55:23.316Z,18.67
2019-02-27T14:57:52.351Z,20.95
2019-02-27T15:00:24.523Z,20.82
2019-02-27T15:02:55.620Z,21.07
2019-02-27T15:05:24.535Z,19.52
2019-02-27T15:07:54.866Z,20.55
2019-02-27T15:10:24.267Z,20.45
2019-02-27T15:12:54.990Z,19.48
2019-02-27T15:15:28.412Z,19.50
2019-02-27T15:17:57.482Z,18.32
2019-02-27T15:20:26.948Z,18.25
2019-02-27T15:22:56.157Z,18.85
2019-02-27T15:25:27.327Z,18.75
2019-02-27T15:27:58.980Z,17.98
2019-02-27T15:30:27.596Z,17.77
2019-02-27T15:32:56.584Z,17.42
2019-02-27T15:35:25.700Z,16.95
2019-02-27T15:37:54.748Z,16.93
2019-02-27T15:40:28.365Z,15.93
2019-02-27T15:42:55.089Z,17.50
2019-02-27T15:45:24.151Z,17.05
2019-02-27T15:47:53.334Z,18.15
2019-02-27T15:50:23.597Z,17.05
2019-02-27T15:52:52.788Z,16.90
2019-02-27T15:55:21.701Z,17.27
2019-02-27T15:57:53.678Z,17.87
2019-02-27T16:00:22.554Z,17.95
2019-02-27T16:02:51.706Z,16.55
2019-02-27T16:05:20.710Z,17.25
2019-02-27T16:07:49.930Z,18.20
2019-02-27T16:10:20.338Z,17.25
2019-02-27T16:12:49.404Z,17.62
2019-02-27T16:15:18.743Z,18.65
2019-02-27T16:17:47.928Z,17.85
2019-02-27T16:20:17.770Z,18.57
2019-02-27T16:22:46.819Z,17.07
2019-02-27T16:25:19.964Z,18.95
2019-02-27T16:27:48.330Z,17.73
2019-02-27T16:30:22.306Z,17.82
2019-02-27T16:32:51.439Z,17.65
2019-02-27T16:35:20.589Z,18.95
2019-02-27T16:37:49.774Z,17.90
2019-02-27T16:40:19.117Z,17.73
2019-02-27T16:42:48.179Z,19.17
2019-02-27T16:45:18.799Z,19.27
2019-02-27T16:47:47.882Z,18.90
2019-02-27T16:50:23.955Z,18.35
2019-02-27T16:52:49.358Z,18.17
2019-02-27T16:55:19.309Z,18.52
2019-02-27T16:57:51.288Z,19.12
2019-02-27T17:00:25.347Z,19.35
2019-02-27T17:02:54.374Z,19.10
2019-02-27T17:05:23.333Z,20.68
2019-02-27T17:07:53.216Z,18.92
2019-02-27T17:10:24.500Z,19.90
2019-02-27T17:12:56.539Z,19.70
2019-02-27T17:15:25.555Z,19.45
2019-02-27T17:17:54.601Z,20.27
2019-02-27T17:20:24.143Z,20.12
2019-02-27T17:22:53.262Z,19.65
2019-02-27T17:25:22.413Z,21.05
2019-02-27T17:27:53.487Z,22.45
2019-02-27T17:30:24.444Z,23.00
2019-02-27T17:32:53.517Z,23.15
2019-02-27T17:35:23.691Z,21.10
2019-02-27T17:37:53.263Z,22.48
2019-02-27T17:40:22.274Z,23.35
2019-02-27T17:42:53.519Z,22.25
2019-02-27T17:45:22.251Z,22.52
2019-02-27T17:47:51.233Z,23.30
2019-02-27T17:50:20.490Z,21.35
2019-02-27T17:52:49.736Z,22.02
2019-02-27T17:55:19.129Z,27.02
2019-02-27T17:57:48.283Z,25.97
2019-02-27T18:00:21.635Z,26.90
2019-02-27T18:02:50.806Z,27.17
2019-02-27T18:05:22.279Z,29.70
2019-02-27T18:07:50.631Z,32.05
2019-02-27T18:10:19.843Z,36.05
2019-02-27T18:12:48.930Z,31.35
2019-02-27T18:15:20.451Z,37.95
2019-02-27T18:17:49.018Z,37.40
2019-02-27T18:20:17.970Z,38.00
2019-02-27T18:22:49.542Z,30.17
2019-02-27T18:25:18.146Z,26.60
2019-02-27T18:27:48.029Z,24.67
2019-02-27T18:30:18.796Z,25.45
2019-02-27T18:32:48.096Z,25.52
2019-02-27T18:35:17.354Z,24.98
2019-02-27T18:37:46.346Z,27.15
2019-02-27T18:40:15.650Z,25.12
2019-02-27T18:42:44.796Z,26.52
2019-02-27T18:45:16.079Z,26.15
2019-02-27T18:47:45.269Z,26.70
2019-02-27T18:50:14.977Z,24.92
2019-02-27T18:52:44.403Z,25.65
2019-02-27T18:55:13.699Z,27.10
2019-02-27T18:57:45.671Z,27.13
2019-02-27T19:00:20.238Z,26.05
2019-02-27T19:02:52.013Z,26.82
2019-02-27T19:05:20.600Z,25.92
2019-02-27T19:07:53.889Z,26.90
2019-02-27T19:10:20.404Z,25.92
2019-02-27T19:12:49.461Z,26.40
2019-02-27T19:15:19.429Z,26.65
2019-02-27T19:17:48.642Z,28.80
2019-02-27T19:20:23.618Z,29.40
2019-02-27T19:22:50.758Z,27.58
2019-02-27T19:25:19.806Z,26.50
2019-02-27T19:27:49.858Z,25.95
2019-02-27T19:30:19.720Z,27.02
2019-02-27T19:32:49.235Z,28.32
2019-02-27T19:35:21.005Z,26.93
2019-02-27T19:37:49.034Z,28.05
2019-02-27T19:40:19.210Z,29.10
2019-02-27T19:42:52.919Z,26.62
2019-02-27T19:45:21.937Z,26.87
2019-02-27T19:47:54.694Z,28.12
2019-02-27T19:50:21.831Z,25.48
2019-02-27T19:52:50.832Z,26.87
2019-02-27T19:55:19.957Z,26.73
2019-02-27T19:57:49.001Z,27.13
2019-02-27T20:00:19.747Z,25.75
2019-02-27T20:02:48.965Z,26.87
2019-02-27T20:05:19.112Z,26.65
2019-02-27T20:07:50.446Z,26.80
2019-02-27T20:10:19.685Z,26.95
2019-02-27T20:12:52.909Z,25.80
2019-02-27T20:15:19.557Z,27.67
2019-02-27T20:17:49.026Z,28.27
2019-02-27T20:20:19.566Z,29.18
2019-02-27T20:22:50.388Z,27.65
2019-02-27T20:25:20.107Z,29.95
2019-02-27T20:27:49.410Z,26.57
2019-02-27T20:30:19.028Z,29.05
2019-02-27T20:32:48.201Z,28.40
2019-02-27T20:35:20.327Z,27.30
2019-02-27T20:37:47.974Z,28.05
2019-02-27T20:40:17.128Z,27.20
2019-02-27T20:42:49.985Z,28.57
2019-02-27T20:45:17.327Z,29.85
2019-02-27T20:47:46.426Z,30.75
2019-02-27T20:50:23.496Z,29.80
2019-02-27T20:52:51.956Z,30.20
2019-02-27T20:55:20.891Z,30.25
2019-02-27T20:57:49.801Z,30.23
2019-02-27T21:00:18.880Z,32.33
2019-02-27T21:02:50.382Z,31.48
2019-02-27T21:05:18.617Z,31.37
2019-02-27T21:07:47.662Z,29.05
2019-02-27T21:10:20.947Z,29.92
2019-02-27T21:12:53.851Z,29.60
2019-02-27T21:15:19.536Z,27.60
2019-02-27T21:17:48.486Z,30.25
2019-02-27T21:20:17.566Z,30.00
2019-02-27T21:22:46.601Z,30.00
2019-02-27T21:25:15.746Z,28.55
2019-02-27T21:27:44.813Z,30.10
2019-02-27T21:30:18.047Z,30.17
2019-02-27T21:32:46.084Z,27.65
2019-02-27T21:35:15.061Z,29.02
2019-02-27T21:37:46.805Z,29.15
2019-02-27T21:40:15.881Z,29.20
2019-02-27T21:42:44.974Z,28.12
2019-02-27T21:45:15.320Z,29.90
2019-02-27T21:47:44.325Z,28.70
2019-02-27T21:50:15.050Z,28.65
2019-02-27T21:52:43.952Z,27.32
2019-02-27T21:55:13.766Z,28.85
2019-02-27T21:57:42.992Z,30.30
2019-02-27T22:00:16.056Z,27.50
2019-02-27T22:02:45.056Z,28.15
2019-02-27T22:05:18.656Z,29.40
2019-02-27T22:07:44.900Z,28.15
2019-02-27T22:10:19.164Z,29.37
2019-02-27T22:12:44.816Z,29.57
2019-02-27T22:15:21.826Z,29.12
2019-02-27T22:17:47.413Z,30.62
2019-02-27T22:20:16.354Z,28.75
2019-02-27T22:22:45.378Z,27.98
2019-02-27T22:25:14.396Z,28.55
2019-02-27T22:27:45.947Z,27.45
2019-02-27T22:30:15.392Z,30.48
2019-02-27T22:32:47.622Z,28.23
2019-02-27T22:35:15.444Z,28.98
2019-02-27T22:37:44.441Z,28.77
2019-02-27T22:40:14.851Z,28.57
2019-02-27T22:42:45.491Z,28.35
2019-02-27T22:45:15.334Z,28.50
2019-02-27T22:47:44.333Z,30.35
2019-02-27T22:50:14.581Z,29.30
2019-02-27T22:52:43.513Z,27.20
2019-02-27T22:55:12.855Z,27.37
2019-02-27T22:57:41.801Z,28.40
2019-02-27T23:00:56.723Z,30.48
2019-02-27T23:03:26.317Z,27.52
2019-02-27T23:05:55.336Z,27.22
2019-02-27T23:08:24.317Z,28.07
2019-02-27T23:10:53.273Z,27.67
2019-02-27T23:13:22.436Z,29.52
2019-02-27T23:15:51.938Z,27.45
2019-02-27T23:18:21.092Z,27.30
2019-02-27T23:20:52.472Z,27.27
2019-02-27T23:23:21.485Z,27.45
2019-02-27T23:25:50.424Z,28.42
2019-02-27T23:28:19.380Z,27.10
2019-02-27T23:30:48.402Z,26.68
2019-02-27T23:33:17.485Z,26.57
2019-02-27T23:35:47.340Z,30.45
2019-02-27T23:38:17.226Z,28.92
2019-02-27T23:40:48.984Z,27.87
2019-02-27T23:43:16.846Z,29.70
2019-02-27T23:45:45.829Z,28.40
2019-02-27T23:48:14.747Z,28.23
2019-02-27T23:50:43.791Z,27.10
2019-02-27T23:53:12.784Z,29.63
2019-02-27T23:55:44.600Z,30.90
2019-02-27T23:58:12.206Z,28.42
